Time;durP1;ratioP1;P1;durP2;ratioP2;P2;SDS_P1;SDS_P2;PMS_P1;PMS_P2;Temp;Humidity;BMP_temperature;BMP_pressure;BME280_temperature;BME280_humidity;BME280_pressure;Samples;Min_cycle;Max_cycle;Signal;HPM_P1;HPM_P2
2022/12/13 00:01:28;;;;;;;9.93;9.07;;;-2.30;99.90;;;;;;5086375;28;20646;-64
2022/12/13 00:03:58;;;;;;;24.77;12.93;;;-2.20;99.90;;;;;;5082767;28;20249;-64
2022/12/13 00:06:24;;;;;;;18.53;11.07;;;-2.30;99.90;;;;;;5083997;28;20183;-64
2022/12/13 00:08:50;;;;;;;18.43;13.50;;;-2.30;99.90;;;;;;5089443;28;20198;-64
2022/12/13 00:11:16;;;;;;;16.57;12.50;;;-2.30;99.90;;;;;;5090572;28;20197;-64
2022/12/13 00:13:42;;;;;;;17.77;11.53;;;-2.30;99.90;;;;;;5082296;28;20191;-64
2022/12/13 00:16:14;;;;;;;11.07;9.97;;;-2.20;99.90;;;;;;5093107;28;20380;-64
2022/12/13 00:18:40;;;;;;;10.03;9.20;;;-2.20;99.90;;;;;;5093488;28;20641;-64
2022/12/13 00:21:14;;;;;;;11.13;10.03;;;-2.20;99.90;;;;;;5092062;28;20187;-64
2022/12/13 00:23:40;;;;;;;24.87;12.20;;;-2.30;99.90;;;;;;5093414;28;20195;-64
2022/12/13 00:26:09;;;;;;;24.37;11.30;;;-2.40;99.90;;;;;;5073996;28;20196;-64
2022/12/13 00:28:35;;;;;;;16.40;10.60;;;-2.20;99.90;;;;;;5083493;28;20210;-64
2022/12/13 00:31:01;;;;;;;15.00;11.50;;;-2.30;99.90;;;;;;5073661;28;20605;-64
2022/12/13 00:33:27;;;;;;;13.30;10.40;;;-2.20;99.90;;;;;;5070198;28;20225;-64
2022/12/13 00:35:53;;;;;;;11.53;10.53;;;-2.30;99.90;;;;;;5085818;28;20395;-64
2022/12/13 00:38:19;;;;;;;14.37;9.93;;;-2.40;99.90;;;;;;5089444;28;20697;-64
2022/12/13 00:40:45;;;;;;;16.43;10.23;;;-2.50;99.90;;;;;;5090292;28;20537;-64
2022/12/13 00:43:11;;;;;;;10.77;9.90;;;-2.60;99.90;;;;;;5076678;28;20206;-65
2022/12/13 00:45:37;;;;;;;22.90;11.10;;;-2.50;99.90;;;;;;5090244;28;20270;-64
2022/12/13 00:48:06;;;;;;;14.07;9.10;;;-2.50;99.90;;;;;;5073724;28;20191;-64
2022/12/13 00:50:33;;;;;;;17.93;11.87;;;-2.40;99.90;;;;;;5058974;28;20644;-64
2022/12/13 00:53:00;;;;;;;9.40;8.50;;;-2.50;99.90;;;;;;5086211;28;20189;-64
2022/12/13 00:55:26;;;;;;;11.63;8.83;;;-2.60;99.90;;;;;;5090920;28;20272;-64
2022/12/13 00:57:51;;;;;;;15.43;9.57;;;-2.70;99.90;;;;;;5088976;28;20252;-64
2022/12/13 01:00:17;;;;;;;14.03;10.13;;;-2.70;99.90;;;;;;5091581;28;20216;-64
2022/12/13 01:02:43;;;;;;;17.23;9.73;;;-2.70;99.90;;;;;;5079249;28;20729;-64
2022/12/13 01:05:09;;;;;;;17.07;8.93;;;-2.60;99.90;;;;;;5092268;28;20272;-64
2022/12/13 01:07:36;;;;;;;11.20;9.60;;;-2.40;99.90;;;;;;5063307;28;20200;-64
2022/12/13 01:10:03;;;;;;;18.03;8.70;;;-2.50;99.90;;;;;;5091702;28;20293;-64
2022/12/13 01:12:29;;;;;;;11.53;6.93;;;-2.50;99.90;;;;;;5092663;28;20186;-64
2022/12/13 01:14:55;;;;;;;10.73;8.63;;;-2.60;99.90;;;;;;5091817;28;20581;-65
2022/12/13 01:17:21;;;;;;;22.63;10.67;;;-2.70;99.90;;;;;;5091662;28;20203;-64
2022/12/13 01:19:47;;;;;;;12.30;9.77;;;-2.70;99.90;;;;;;5091056;28;20705;-65
2022/12/13 01:22:12;;;;;;;10.57;9.57;;;-2.80;99.90;;;;;;5093223;28;20202;-64
2022/12/13 01:24:38;;;;;;;13.20;10.60;;;-2.70;99.90;;;;;;5090196;28;20203;-64
2022/12/13 01:27:04;;;;;;;13.17;10.57;;;-2.60;99.90;;;;;;5091193;28;20195;-64
2022/12/13 01:29:29;;;;;;;14.77;10.20;;;-2.60;99.90;;;;;;5090710;28;20187;-64
2022/12/13 01:31:55;;;;;;;13.83;8.97;;;-2.60;99.90;;;;;;5092704;28;20190;-64
2022/12/13 01:34:22;;;;;;;11.80;9.40;;;-2.70;99.90;;;;;;5085806;28;20230;-64
2022/12/13 01:36:48;;;;;;;13.10;9.67;;;-2.70;99.90;;;;;;5074368;28;20191;-64
2022/12/13 01:39:18;;;;;;;14.80;11.50;;;-2.60;99.90;;;;;;5091301;28;20189;-64
2022/12/13 01:41:46;;;;;;;9.17;8.13;;;-2.70;99.90;;;;;;5077563;28;20942;-64
2022/12/13 01:44:49;;;;;;;17.20;10.53;;;-2.80;99.90;;;;;;5087631;28;20189;-64
2022/12/13 01:47:18;;;;;;;11.27;8.33;;;-2.90;99.90;;;;;;5089592;28;20311;-64
2022/12/13 01:49:43;;;;;;;13.07;11.77;;;-3.10;99.90;;;;;;5102232;28;20181;-64
2022/12/13 01:52:12;;;;;;;10.87;9.83;;;-3.10;99.90;;;;;;5079566;28;20193;-64
2022/12/13 01:54:45;;;;;;;22.70;11.30;;;-3.30;99.90;;;;;;5091127;28;20213;-64
2022/12/13 01:57:14;;;;;;;21.67;11.13;;;-3.30;99.90;;;;;;5088681;28;20211;-65
2022/12/13 01:59:41;;;;;;;11.13;9.97;;;-3.20;99.90;;;;;;5090516;28;20185;-65
2022/12/13 02:02:09;;;;;;;16.80;10.63;;;-3.30;99.90;;;;;;5087178;28;20651;-65
2022/12/13 02:04:57;;;;;;;11.10;9.97;;;-3.40;99.90;;;;;;5084549;28;20196;-65
2022/12/13 02:07:28;;;;;;;24.40;10.67;;;-3.10;99.90;;;;;;5092017;28;20230;-65
2022/12/13 02:09:57;;;;;;;12.03;8.30;;;-3.00;99.90;;;;;;5090893;28;20196;-65
2022/12/13 02:12:25;;;;;;;11.73;8.17;;;-3.10;99.90;;;;;;5091337;28;20184;-65
2022/12/13 02:14:52;;;;;;;14.93;7.80;;;-3.00;99.90;;;;;;5091441;28;20209;-65
2022/12/13 02:17:36;;;;;;;14.27;10.77;;;-3.00;99.90;;;;;;5090859;28;20192;-65
2022/12/13 02:20:01;;;;;;;12.47;10.73;;;-3.00;99.90;;;;;;5094567;28;20192;-65
2022/12/13 02:22:48;;;;;;;9.67;8.77;;;-3.00;99.90;;;;;;5093064;28;20204;-65
2022/12/13 02:25:27;;;;;;;12.10;9.60;;;-3.00;99.90;;;;;;5077672;28;20207;-65
2022/12/13 02:28:05;;;;;;;11.87;10.53;;;-3.10;99.90;;;;;;5091351;28;20173;-65
2022/12/13 02:30:51;;;;;;;9.53;8.63;;;-2.90;99.90;;;;;;5080774;28;20277;-64
2022/12/13 02:33:35;;;;;;;10.90;9.47;;;-2.90;99.90;;;;;;5088876;28;20179;-64
2022/12/13 02:36:06;;;;;;;11.90;6.37;;;-3.00;99.90;;;;;;5081011;28;20208;-64
2022/12/13 02:38:45;;;;;;;21.70;8.07;;;-2.90;99.90;;;;;;5095029;28;20193;-64
2022/12/13 02:41:23;;;;;;;13.47;10.20;;;-2.90;99.90;;;;;;5105892;28;20185;-64
2022/12/13 02:43:57;;;;;;;10.57;8.33;;;-3.00;99.90;;;;;;5083292;28;20189;-64
2022/12/13 02:46:27;;;;;;;16.87;9.10;;;-3.00;99.90;;;;;;5091280;28;20184;-64
2022/12/13 02:48:56;;;;;;;10.80;9.80;;;-3.10;99.90;;;;;;5095450;28;20185;-64
2022/12/13 02:51:23;;;;;;;8.60;7.77;;;-3.30;99.90;;;;;;5110663;28;20189;-64
2022/12/13 02:53:49;;;;;;;10.43;8.27;;;-3.20;99.90;;;;;;5074633;28;20185;-64
2022/12/13 02:56:15;;;;;;;23.30;9.97;;;-3.00;99.90;;;;;;5093607;28;20231;-64
2022/12/13 02:58:46;;;;;;;9.80;9.07;;;-3.00;99.90;;;;;;5078231;28;20198;-64
2022/12/13 03:01:36;;;;;;;12.00;7.57;;;-2.90;99.90;;;;;;5091165;28;20177;-64
2022/12/13 03:04:04;;;;;;;9.67;7.73;;;-2.90;99.90;;;;;;5095337;28;20678;-64
2022/12/13 03:06:42;;;;;;;10.97;9.30;;;-2.90;99.90;;;;;;5094224;28;20271;-64
2022/12/13 03:09:16;;;;;;;9.10;8.30;;;-2.90;99.90;;;;;;5095011;28;20188;-64
2022/12/13 03:15:05;;;;;;;11.97;10.03;;;-3.00;99.90;;;;;;5061192;28;20280;-64
2022/12/13 03:17:39;;;;;;;11.70;9.10;;;-3.00;99.90;;;;;;5091507;28;20235;-65
2022/12/13 03:20:06;;;;;;;8.00;7.33;;;-3.10;99.90;;;;;;5080576;28;20184;-65
2022/12/13 03:22:35;;;;;;;12.30;10.03;;;-3.20;99.90;;;;;;5089980;28;20197;-64
2022/12/13 03:25:01;;;;;;;11.87;8.97;;;-3.30;99.90;;;;;;5087999;28;20193;-64
2022/12/13 03:27:26;;;;;;;19.97;9.20;;;-3.50;99.90;;;;;;5086281;28;20185;-64
2022/12/13 03:29:52;;;;;;;10.17;8.47;;;-3.60;99.90;;;;;;5075731;28;20186;-65
2022/12/13 03:32:18;;;;;;;14.60;8.97;;;-3.40;99.90;;;;;;5089245;28;20275;-65
2022/12/13 03:34:44;;;;;;;19.17;11.10;;;-3.20;99.90;;;;;;5075914;28;20213;-65
2022/12/13 03:37:09;;;;;;;15.50;7.37;;;-3.10;99.90;;;;;;5101907;28;20184;-64
2022/12/13 03:39:35;;;;;;;11.97;10.53;;;-3.10;99.90;;;;;;5089625;28;20234;-64
2022/12/13 03:42:01;;;;;;;11.83;10.53;;;-3.10;99.90;;;;;;5086781;28;20591;-64
2022/12/13 03:44:26;;;;;;;8.20;7.50;;;-3.30;99.90;;;;;;5094246;28;20595;-65
2022/12/13 03:46:52;;;;;;;12.90;8.20;;;-3.40;99.90;;;;;;5093440;28;20649;-65
2022/12/13 03:49:18;;;;;;;9.83;8.97;;;-3.40;99.90;;;;;;5094258;28;20214;-65
2022/12/13 03:51:44;;;;;;;13.23;10.07;;;-3.30;99.90;;;;;;5085814;28;20640;-65
2022/12/13 03:54:10;;;;;;;8.03;7.33;;;-3.30;99.90;;;;;;5092431;28;20185;-65
2022/12/13 03:56:35;;;;;;;17.57;7.80;;;-3.30;99.90;;;;;;5087591;28;20195;-64
2022/12/13 03:59:01;;;;;;;10.50;9.50;;;-3.20;99.90;;;;;;5075095;28;20191;-64
2022/12/13 04:01:27;;;;;;;14.90;10.07;;;-3.20;99.90;;;;;;5084968;28;20196;-65
2022/12/13 04:03:53;;;;;;;9.43;6.60;;;-3.30;99.90;;;;;;5085650;28;20188;-65
2022/12/13 04:06:19;;;;;;;13.30;11.30;;;-3.30;99.90;;;;;;5081907;28;20177;-65
2022/12/13 04:08:44;;;;;;;13.50;8.97;;;-3.50;99.90;;;;;;5093733;28;20647;-64
2022/12/13 04:13:55;;;;;;;5.90;5.37;;;-3.70;99.90;;;;;;5085713;28;20195;-64
2022/12/13 04:16:22;;;;;;;8.43;7.40;;;-3.70;99.90;;;;;;5093896;28;20189;-64
2022/12/13 04:18:48;;;;;;;8.67;7.77;;;-3.70;99.90;;;;;;5058413;28;20185;-64
2022/12/13 04:21:14;;;;;;;12.80;8.27;;;-3.70;99.90;;;;;;5096298;28;20189;-64
2022/12/13 04:23:40;;;;;;;9.07;8.23;;;-3.70;99.90;;;;;;5092928;28;20200;-65
2022/12/13 04:26:06;;;;;;;10.23;8.93;;;-3.80;99.90;;;;;;5092802;28;20185;-64
2022/12/13 04:28:31;;;;;;;14.17;11.40;;;-3.80;99.90;;;;;;5089758;28;20213;-64
2022/12/13 04:30:57;;;;;;;12.97;9.13;;;-3.80;99.90;;;;;;5085459;28;21372;-64
2022/12/13 04:33:24;;;;;;;7.77;6.47;;;-3.70;99.90;;;;;;5085972;28;20193;-64
2022/12/13 04:35:50;;;;;;;9.97;6.23;;;-3.70;99.90;;;;;;5091375;28;20234;-64
2022/12/13 04:38:16;;;;;;;5.83;5.33;;;-3.60;99.90;;;;;;5092900;28;20692;-65
2022/12/13 04:40:42;;;;;;;15.27;10.27;;;-3.70;99.90;;;;;;5078752;28;20180;-64
2022/12/13 04:43:07;;;;;;;9.03;8.13;;;-3.70;99.90;;;;;;5087951;28;20271;-65
2022/12/13 04:45:33;;;;;;;9.07;8.17;;;-3.80;99.90;;;;;;5088749;28;20188;-65
2022/12/13 04:47:58;;;;;;;8.90;8.10;;;-3.80;99.90;;;;;;5087623;28;20217;-65
2022/12/13 04:50:24;;;;;;;7.07;6.43;;;-3.70;99.90;;;;;;5075956;28;20280;-65
2022/12/13 04:52:50;;;;;;;9.23;8.37;;;-3.80;99.90;;;;;;5082752;28;20195;-66
2022/12/13 04:55:15;;;;;;;21.83;8.80;;;-3.80;99.90;;;;;;5074171;28;20638;-64
2022/12/13 04:57:41;;;;;;;8.37;6.77;;;-3.80;99.90;;;;;;5097452;28;20193;-64
2022/12/13 05:00:10;;;;;;;12.43;6.20;;;-3.90;99.90;;;;;;5103294;28;20299;-64
2022/12/13 05:02:36;;;;;;;16.40;8.80;;;-3.80;99.90;;;;;;5088292;28;20217;-64
2022/12/13 05:05:02;;;;;;;9.77;7.70;;;-3.80;99.90;;;;;;5091082;28;20216;-64
2022/12/13 05:07:27;;;;;;;7.80;6.23;;;-3.80;99.90;;;;;;5087652;28;20578;-65
2022/12/13 05:09:53;;;;;;;7.00;6.37;;;-3.80;99.90;;;;;;5091646;28;20663;-65
2022/12/13 05:12:18;;;;;;;12.60;8.53;;;-3.80;99.90;;;;;;5093085;28;20181;-65
2022/12/13 05:14:44;;;;;;;13.67;8.20;;;-3.90;99.90;;;;;;5086412;28;20553;-64
2022/12/13 05:17:10;;;;;;;9.00;8.13;;;-3.80;99.90;;;;;;5074504;28;20203;-65
2022/12/13 05:19:35;;;;;;;8.53;7.77;;;-3.90;99.90;;;;;;5082241;28;20197;-65
2022/12/13 05:22:01;;;;;;;12.90;6.30;;;-3.90;99.90;;;;;;5091045;28;20564;-64
2022/12/13 05:24:27;;;;;;;11.20;6.83;;;-3.90;99.90;;;;;;5092356;28;20558;-64
2022/12/13 05:26:52;;;;;;;7.73;6.83;;;-4.00;99.90;;;;;;5090496;28;20188;-64
2022/12/13 05:29:18;;;;;;;13.47;6.30;;;-4.00;99.90;;;;;;5091388;28;20195;-64
2022/12/13 05:31:44;;;;;;;9.07;8.30;;;-4.00;99.90;;;;;;5087604;28;20177;-65
2022/12/13 05:34:10;;;;;;;6.37;5.97;;;-4.00;99.90;;;;;;5091086;28;20700;-65
2022/12/13 05:36:35;;;;;;;7.77;6.40;;;-4.00;99.90;;;;;;5091962;28;20193;-65
2022/12/13 05:39:01;;;;;;;12.83;9.07;;;-4.10;99.90;;;;;;5091545;28;20188;-66
2022/12/13 05:41:30;;;;;;;9.47;8.20;;;-4.10;99.90;;;;;;5067887;28;21193;-65
2022/12/13 05:43:56;;;;;;;15.47;7.27;;;-4.10;99.90;;;;;;5083250;28;20183;-65
2022/12/13 05:46:22;;;;;;;11.77;8.67;;;-4.10;99.90;;;;;;5092784;28;20192;-65
2022/12/13 05:48:47;;;;;;;16.13;9.63;;;-4.10;99.90;;;;;;5091874;28;20184;-63
2022/12/13 05:51:13;;;;;;;8.60;7.90;;;-4.10;99.90;;;;;;5091698;28;20188;-65
2022/12/13 05:53:40;;;;;;;14.20;10.63;;;-4.10;99.90;;;;;;5070666;28;20185;-64
2022/12/13 05:56:07;;;;;;;10.70;7.20;;;-4.00;99.90;;;;;;5091613;28;20205;-65
2022/12/13 05:58:32;;;;;;;6.90;6.27;;;-3.90;99.90;;;;;;5073673;28;20196;-64
2022/12/13 06:01:09;;;;;;;18.37;11.50;;;-4.00;99.90;;;;;;5090216;28;20196;-65
2022/12/13 06:03:34;;;;;;;12.80;9.70;;;-4.10;99.90;;;;;;5073901;28;20294;-65
2022/12/13 06:06:03;;;;;;;7.73;7.17;;;-4.10;99.90;;;;;;5078568;28;20624;-66
2022/12/13 06:08:29;;;;;;;6.43;5.93;;;-4.20;99.90;;;;;;5089755;28;20188;-63
2022/12/13 06:11:00;;;;;;;6.23;4.97;;;-4.20;99.90;;;;;;5085292;28;20180;-63
2022/12/13 06:13:26;;;;;;;8.40;6.37;;;-4.30;99.90;;;;;;5091519;28;20176;-64
2022/12/13 06:15:52;;;;;;;16.07;9.17;;;-4.30;99.90;;;;;;5083879;28;20570;-64
2022/12/13 06:18:18;;;;;;;6.00;5.57;;;-4.30;99.90;;;;;;5074796;28;20220;-65
2022/12/13 06:20:45;;;;;;;6.63;6.23;;;-4.00;99.90;;;;;;5090604;28;20719;-64
2022/12/13 06:23:10;;;;;;;6.63;6.10;;;-4.00;99.90;;;;;;5092057;28;20227;-64
2022/12/13 06:25:36;;;;;;;10.80;7.80;;;-4.10;99.90;;;;;;5090499;28;20224;-64
2022/12/13 06:28:02;;;;;;;8.37;7.63;;;-4.20;99.90;;;;;;5090708;28;20635;-64
2022/12/13 06:30:29;;;;;;;9.00;8.43;;;-4.20;99.90;;;;;;5081030;28;20196;-64
2022/12/13 06:32:55;;;;;;;8.60;6.53;;;-4.30;99.90;;;;;;5091131;28;20173;-64
2022/12/13 06:35:21;;;;;;;6.77;6.07;;;-4.30;99.90;;;;;;5088906;28;20215;-64
2022/12/13 06:37:51;;;;;;;17.57;9.83;;;-4.30;99.90;;;;;;5091311;28;20189;-64
2022/12/13 06:40:17;;;;;;;9.57;7.03;;;-4.30;99.90;;;;;;5085971;28;20652;-64
2022/12/13 06:42:43;;;;;;;9.60;8.43;;;-4.20;99.90;;;;;;5069693;28;20190;-63
2022/12/13 06:45:09;;;;;;;6.80;6.20;;;-4.00;99.90;;;;;;5044777;28;20262;-63
2022/12/13 06:47:35;;;;;;;6.77;5.63;;;-4.10;99.90;;;;;;5056733;28;20183;-63
2022/12/13 06:50:00;;;;;;;7.30;6.60;;;-4.20;99.90;;;;;;5091041;28;20204;-64
2022/12/13 06:52:26;;;;;;;6.90;6.40;;;-4.10;99.90;;;;;;5090491;28;20200;-64
2022/12/13 06:54:52;;;;;;;6.90;6.47;;;-4.10;99.90;;;;;;5078610;28;20216;-64
2022/12/13 06:57:18;;;;;;;9.83;7.87;;;-4.20;99.90;;;;;;5074032;28;20193;-64
2022/12/13 06:59:44;;;;;;;8.70;8.13;;;-4.20;99.90;;;;;;5090780;28;20191;-65
2022/12/13 07:02:09;;;;;;;10.00;7.07;;;-4.30;99.90;;;;;;5072418;28;20188;-66
2022/12/13 07:04:35;;;;;;;6.83;6.30;;;-4.40;99.90;;;;;;5084405;28;20714;-64
2022/12/13 07:07:01;;;;;;;6.80;6.33;;;-4.40;99.90;;;;;;5092658;28;21464;-64
2022/12/13 07:09:28;;;;;;;8.90;8.20;;;-4.40;99.90;;;;;;5094244;28;20215;-65
2022/12/13 07:11:54;;;;;;;9.40;7.93;;;-4.30;99.90;;;;;;5094107;28;20224;-64
2022/12/13 07:14:19;;;;;;;7.27;6.53;;;-4.40;99.90;;;;;;5094441;28;20264;-64
2022/12/13 07:16:45;;;;;;;6.50;6.03;;;-4.40;99.90;;;;;;5092655;28;20718;-64
2022/12/13 07:19:11;;;;;;;7.00;6.10;;;-4.40;99.90;;;;;;5094893;28;20334;-64
2022/12/13 07:21:38;;;;;;;8.77;6.13;;;-4.40;99.90;;;;;;5088818;28;20184;-64
2022/12/13 07:24:05;;;;;;;5.20;4.80;;;-4.40;99.90;;;;;;5093858;28;20230;-64
2022/12/13 07:26:30;;;;;;;6.60;6.00;;;-4.40;99.90;;;;;;5079878;28;20185;-64
2022/12/13 07:28:56;;;;;;;3.73;3.60;;;-4.40;99.90;;;;;;5093573;28;20191;-64
2022/12/13 07:31:23;;;;;;;7.23;6.63;;;-4.40;99.90;;;;;;5089654;28;20283;-64
2022/12/13 07:33:49;;;;;;;7.57;6.80;;;-4.30;99.90;;;;;;5093435;28;20709;-64
2022/12/13 07:36:20;;;;;;;6.57;6.03;;;-4.30;99.90;;;;;;5089953;28;20247;-65
2022/12/13 07:38:54;;;;;;;8.63;6.77;;;-4.30;99.90;;;;;;5084458;28;20185;-65
2022/12/13 07:41:21;;;;;;;5.37;5.07;;;-4.30;99.90;;;;;;5094050;28;20262;-65
2022/12/13 07:43:46;;;;;;;6.97;6.37;;;-4.40;99.90;;;;;;5094441;28;20189;-67
2022/12/13 07:46:13;;;;;;;6.10;5.30;;;-4.30;99.90;;;;;;5066020;28;20283;-64
2022/12/13 07:48:39;;;;;;;7.63;6.67;;;-4.30;99.90;;;;;;5090413;28;20192;-64
2022/12/13 07:51:07;;;;;;;10.03;9.00;;;-4.30;99.90;;;;;;5090365;28;20181;-64
2022/12/13 07:53:33;;;;;;;6.70;6.10;;;-4.30;99.90;;;;;;5089237;28;20180;-64
2022/12/13 07:56:04;;;;;;;8.50;5.30;;;-4.30;99.90;;;;;;5083139;28;20272;-65
2022/12/13 07:58:32;;;;;;;11.67;6.67;;;-4.20;99.90;;;;;;5093861;28;20253;-65
2022/12/13 08:01:06;;;;;;;10.53;7.57;;;-4.20;99.90;;;;;;5093227;28;20275;-65
2022/12/13 08:03:33;;;;;;;7.70;7.00;;;-4.20;99.90;;;;;;5089176;28;20267;-65
2022/12/13 08:06:07;;;;;;;7.03;6.53;;;-4.10;99.90;;;;;;5085527;28;20204;-65
2022/12/13 08:08:33;;;;;;;7.33;6.57;;;-4.00;99.90;;;;;;5093211;28;20190;-65
2022/12/13 08:11:10;;;;;;;17.53;7.93;;;-4.00;99.90;;;;;;5083874;28;20186;-64
2022/12/13 08:13:37;;;;;;;5.73;5.33;;;-4.00;99.90;;;;;;5086077;28;20185;-65
2022/12/13 08:16:05;;;;;;;6.17;5.67;;;-4.00;99.90;;;;;;5091564;28;20220;-65
2022/12/13 08:18:32;;;;;;;6.73;6.03;;;-4.00;99.90;;;;;;5092589;28;20956;-63
2022/12/13 08:21:05;;;;;;;6.00;5.57;;;-3.90;99.90;;;;;;5092508;28;20224;-64
2022/12/13 08:23:32;;;;;;;10.53;8.83;;;-3.90;99.90;;;;;;5088392;28;20642;-64
2022/12/13 08:25:59;;;;;;;9.47;7.33;;;-3.90;99.90;;;;;;5093120;28;20196;-63
2022/12/13 08:28:26;;;;;;;10.27;7.10;;;-3.80;99.90;;;;;;5097302;28;20552;-64
2022/12/13 08:30:51;;;;;;;16.13;8.13;;;-3.70;99.90;;;;;;5088823;28;20189;-64
2022/12/13 08:33:18;;;;;;;8.50;7.70;;;-3.70;99.90;;;;;;5084792;28;20197;-64
2022/12/13 08:35:44;;;;;;;9.13;8.27;;;-3.60;99.90;;;;;;5091453;28;20236;-64
2022/12/13 08:38:10;;;;;;;8.33;6.93;;;-3.50;99.90;;;;;;5093057;28;20192;-65
2022/12/13 08:40:36;;;;;;;15.03;8.53;;;-3.50;99.90;;;;;;5093273;28;20183;-64
2022/12/13 08:43:01;;;;;;;9.03;7.90;;;-3.60;99.90;;;;;;5092700;28;20648;-62
2022/12/13 08:45:27;;;;;;;8.23;7.53;;;-3.70;99.90;;;;;;5085708;28;20239;-65
2022/12/13 08:47:55;;;;;;;18.13;9.43;;;-3.70;99.90;;;;;;5082992;28;20189;-63
2022/12/13 08:50:21;;;;;;;8.20;7.40;;;-3.60;99.90;;;;;;5078622;28;20182;-64
2022/12/13 08:52:47;;;;;;;14.73;8.03;;;-3.50;99.90;;;;;;5087017;28;20255;-65
2022/12/13 08:55:14;;;;;;;13.93;7.17;;;-3.50;99.90;;;;;;5069542;28;20224;-63
2022/12/13 08:57:41;;;;;;;8.57;7.70;;;-3.50;99.90;;;;;;5086767;28;20211;-64
2022/12/13 09:00:10;;;;;;;7.73;6.93;;;-3.50;99.90;;;;;;5088379;28;20787;-64
2022/12/13 09:02:36;;;;;;;8.27;7.50;;;-3.50;99.90;;;;;;5086804;28;20185;-64
2022/12/13 09:05:03;;;;;;;9.57;6.97;;;-3.50;99.90;;;;;;5087236;28;20583;-65
2022/12/13 09:07:28;;;;;;;12.43;11.27;;;-3.40;99.90;;;;;;5087168;28;20761;-63
2022/12/13 09:09:54;;;;;;;12.23;7.20;;;-3.30;99.90;;;;;;5086876;28;20192;-62
2022/12/13 09:12:20;;;;;;;16.13;10.67;;;-3.30;99.90;;;;;;5088192;28;20256;-65
2022/12/13 09:14:46;;;;;;;12.43;9.70;;;-3.30;99.90;;;;;;5052601;28;20217;-64
2022/12/13 09:17:14;;;;;;;19.93;8.23;;;-3.40;99.90;;;;;;5080333;28;20189;-65
2022/12/13 09:19:39;;;;;;;10.23;7.20;;;-3.30;99.90;;;;;;5086378;28;20668;-64
2022/12/13 09:22:05;;;;;;;14.43;10.20;;;-3.10;99.90;;;;;;5086505;28;20205;-65
2022/12/13 09:24:31;;;;;;;16.57;9.53;;;-3.10;99.90;;;;;;5076499;28;20244;-64
2022/12/13 09:26:57;;;;;;;13.00;9.80;;;-2.90;99.90;;;;;;5086489;28;20190;-64
2022/12/13 09:29:23;;;;;;;11.43;8.33;;;-2.80;99.90;;;;;;5084222;28;20189;-63
2022/12/13 09:31:49;;;;;;;9.10;8.17;;;-2.60;99.90;;;;;;5085903;28;20204;-64
2022/12/13 09:34:14;;;;;;;10.13;8.47;;;-2.20;99.90;;;;;;5069332;28;20186;-64
2022/12/13 09:36:41;;;;;;;7.53;6.87;;;-2.00;99.90;;;;;;5080340;28;20720;-64
2022/12/13 09:39:07;;;;;;;11.13;10.13;;;-1.80;99.90;;;;;;5063572;28;20565;-66
2022/12/13 09:41:36;;;;;;;12.00;8.53;;;-1.90;99.90;;;;;;5085226;28;20818;-64
2022/12/13 09:44:24;;;;;;;22.83;9.00;;;-2.20;99.90;;;;;;5084854;28;20267;-65
2022/12/13 09:46:52;;;;;;;11.37;8.33;;;-2.30;99.90;;;;;;5082055;28;20174;-63
2022/12/13 09:49:27;;;;;;;11.27;10.10;;;-2.50;99.90;;;;;;5067600;28;20679;-64
2022/12/13 09:51:56;;;;;;;14.63;9.47;;;-2.50;99.90;;;;;;5086301;28;20303;-64
2022/12/13 09:54:23;;;;;;;13.33;9.37;;;-2.70;99.90;;;;;;5067105;28;20662;-65
2022/12/13 09:56:50;;;;;;;19.00;12.27;;;-2.60;99.90;;;;;;5086743;28;20265;-64
2022/12/13 09:59:20;;;;;;;10.63;9.33;;;-2.50;99.90;;;;;;5086307;28;20184;-65
2022/12/13 10:01:45;;;;;;;12.33;8.37;;;-2.40;99.90;;;;;;5085269;28;20271;-66
2022/12/13 10:04:14;;;;;;;14.67;13.07;;;-2.30;99.90;;;;;;5086541;28;20282;-65
2022/12/13 10:06:40;;;;;;;10.47;7.73;;;-2.20;99.90;;;;;;5086814;28;20190;-65
2022/12/13 10:09:09;;;;;;;17.27;8.40;;;-2.00;99.90;;;;;;5085180;28;20191;-66
2022/12/13 10:11:35;;;;;;;8.53;7.23;;;-2.20;99.90;;;;;;5081927;28;20191;-65
2022/12/13 10:14:16;;;;;;;11.20;8.37;;;-2.40;99.90;;;;;;5068982;28;20188;-65
2022/12/13 10:16:46;;;;;;;11.43;7.67;;;-2.50;99.90;;;;;;5087019;28;20195;-65
2022/12/13 10:19:12;;;;;;;23.17;9.33;;;-2.30;99.90;;;;;;5085703;28;20210;-65
2022/12/13 10:21:41;;;;;;;16.10;10.20;;;-2.20;99.90;;;;;;5085063;28;20226;-65
2022/12/13 10:24:14;;;;;;;17.40;11.37;;;-1.90;99.90;;;;;;5083853;28;20318;-66
2022/12/13 10:26:40;;;;;;;21.53;12.87;;;-1.70;99.90;;;;;;5085723;28;20181;-65
2022/12/13 10:29:07;;;;;;;18.13;11.63;;;-1.80;99.90;;;;;;5084991;28;20669;-64
2022/12/13 10:31:52;;;;;;;13.50;10.93;;;-2.00;99.90;;;;;;5082883;28;20183;-65
2022/12/13 10:34:25;;;;;;;9.30;8.33;;;-2.00;99.90;;;;;;5083678;28;20608;-65
2022/12/13 10:36:52;;;;;;;14.30;10.90;;;-1.70;99.90;;;;;;5078959;28;20603;-65
2022/12/13 10:39:41;;;;;;;22.40;7.80;;;-1.70;99.90;;;;;;5069473;28;20185;-66
2022/12/13 10:42:25;;;;;;;11.93;10.73;;;-1.90;99.90;;;;;;5088294;28;20176;-65
2022/12/13 10:45:15;;;;;;;17.83;9.87;;;-1.90;99.90;;;;;;5088250;28;20211;-65
2022/12/13 10:47:44;;;;;;;13.60;11.33;;;-1.70;99.90;;;;;;5077796;28;20659;-65
2022/12/13 10:50:28;;;;;;;17.83;12.90;;;-1.80;99.90;;;;;;5088775;28;20188;-65
2022/12/13 10:52:56;;;;;;;10.37;8.93;;;-1.50;99.90;;;;;;5091011;28;20183;-65
2022/12/13 10:55:27;;;;;;;12.83;10.20;;;-1.50;99.90;;;;;;5086592;28;20630;-66
2022/12/13 10:57:56;;;;;;;15.37;10.27;;;-1.70;99.90;;;;;;5090155;28;20263;-66
2022/12/13 11:00:31;;;;;;;18.43;9.93;;;-1.50;99.90;;;;;;5089457;28;20583;-65
2022/12/13 11:02:56;;;;;;;14.73;9.20;;;-1.50;99.90;;;;;;5081675;28;20259;-66
2022/12/13 11:05:32;;;;;;;26.97;13.70;;;-1.40;99.90;;;;;;5089169;28;20348;-68
2022/12/13 11:08:25;;;;;;;17.57;11.07;;;-1.20;99.90;;;;;;5089142;28;20616;-66
2022/12/13 11:11:05;;;;;;;14.80;11.93;;;-1.30;99.90;;;;;;5089609;28;20184;-65
2022/12/13 11:13:37;;;;;;;15.73;10.67;;;-1.10;99.90;;;;;;5083540;28;20638;-65
2022/12/13 11:16:25;;;;;;;24.47;13.10;;;-1.10;99.90;;;;;;5086517;28;20220;-65
2022/12/13 11:18:55;;;;;;;23.30;12.03;;;-0.90;99.90;;;;;;5086130;28;20196;-64
2022/12/13 11:21:28;;;;;;;15.97;10.67;;;-0.60;99.90;;;;;;5086242;28;20208;-64
2022/12/13 11:23:57;;;;;;;20.33;11.13;;;-0.60;99.90;;;;;;5081470;28;20245;-65
2022/12/13 11:26:24;;;;;;;13.63;10.27;;;-0.80;99.90;;;;;;5087025;28;20184;-64
2022/12/13 11:29:05;;;;;;;21.23;10.83;;;-0.80;99.90;;;;;;5063248;28;20207;-63
2022/12/13 11:31:45;;;;;;;10.17;9.13;;;-0.80;99.90;;;;;;5084287;28;20176;-64
2022/12/13 11:34:29;;;;;;;20.40;12.73;;;-0.80;99.90;;;;;;5086187;28;20185;-65
2022/12/13 11:37:22;;;;;;;10.97;9.10;;;-0.80;99.90;;;;;;5080730;28;20271;-64
2022/12/13 11:40:03;;;;;;;21.70;12.27;;;-0.60;99.90;;;;;;5086547;28;20412;-63
2022/12/13 11:42:54;;;;;;;18.93;12.30;;;-0.30;99.90;;;;;;5086228;28;20871;-64
2022/12/13 11:45:35;;;;;;;17.10;10.80;;;-0.20;99.90;;;;;;5085428;28;20323;-64
2022/12/13 11:48:09;;;;;;;18.13;12.33;;;0.00;99.90;;;;;;5081553;28;20200;-64
2022/12/13 11:50:42;;;;;;;23.87;13.07;;;-0.20;99.90;;;;;;5073729;28;20196;-64
2022/12/13 11:53:32;;;;;;;19.47;10.57;;;-0.20;99.90;;;;;;5083668;28;20834;-63
2022/12/13 11:56:12;;;;;;;19.27;10.80;;;-0.40;99.90;;;;;;5084573;28;20612;-62
2022/12/13 11:59:04;;;;;;;16.37;11.00;;;-0.20;99.90;;;;;;5082407;28;20551;-63
2022/12/13 12:01:48;;;;;;;15.10;12.10;;;-0.30;99.90;;;;;;5087947;28;20646;-64
2022/12/13 12:04:33;;;;;;;14.53;11.87;;;-0.30;99.90;;;;;;5077010;28;20207;-65
2022/12/13 12:07:10;;;;;;;20.03;12.77;;;-0.30;99.90;;;;;;5080483;28;20242;-63
2022/12/13 12:09:41;;;;;;;23.33;13.00;;;-0.20;99.90;;;;;;5084566;28;20177;-64
2022/12/13 12:12:38;;;;;;;24.70;12.50;;;-0.20;99.90;;;;;;5070715;28;20178;-64
2022/12/13 12:15:25;;;;;;;20.87;11.97;;;0.20;99.90;;;;;;5084911;28;20337;-63
2022/12/13 12:17:51;;;;;;;20.70;13.17;;;0.20;99.90;;;;;;5085921;28;20591;-63
2022/12/13 12:20:36;;;;;;;23.03;11.70;;;0.00;99.90;;;;;;5087389;28;20180;-63
2022/12/13 12:23:13;;;;;;;14.00;11.03;;;-0.10;99.90;;;;;;5084530;28;20201;-63
2022/12/13 12:25:57;;;;;;;16.73;11.23;;;0.20;99.90;;;;;;5075655;28;20546;-63
2022/12/13 12:28:41;;;;;;;24.37;13.83;;;0.40;99.90;;;;;;5087576;28;20176;-62
2022/12/13 12:31:31;;;;;;;15.03;11.10;;;0.40;99.90;;;;;;5087970;28;20185;-63
2022/12/13 12:33:59;;;;;;;17.63;11.27;;;0.60;99.90;;;;;;5076330;28;20184;-63
2022/12/13 12:36:31;;;;;;;17.83;10.97;;;0.70;99.90;;;;;;5088049;28;20212;-63
2022/12/13 12:39:16;;;;;;;20.03;12.87;;;0.90;99.90;;;;;;5100985;28;20332;-63
2022/12/13 12:41:50;;;;;;;23.17;11.50;;;0.60;99.90;;;;;;5078228;28;20718;-65
2022/12/13 12:44:32;;;;;;;15.90;11.50;;;0.80;99.90;;;;;;5089050;28;20539;-64
2022/12/13 12:47:08;;;;;;;16.57;11.67;;;0.80;99.90;;;;;;5086969;28;20275;-64
2022/12/13 12:49:36;;;;;;;19.57;12.17;;;0.70;99.90;;;;;;5088538;28;20175;-64
2022/12/13 12:52:33;;;;;;;16.17;10.67;;;0.80;99.90;;;;;;5093058;28;20586;-64
2022/12/13 12:55:20;;;;;;;15.43;8.77;;;1.10;99.90;;;;;;5080649;28;20218;-64
2022/12/13 12:57:54;;;;;;;13.77;10.37;;;0.90;99.90;;;;;;5090518;28;20201;-64